createdAt,value
2019-05-21T00:00:41.731Z,35.03
2019-05-21T00:03:27.810Z,36.67
2019-05-21T00:06:14.090Z,37.87
2019-05-21T00:09:00.395Z,34.07
2019-05-21T00:11:46.670Z,37.43
2019-05-21T00:14:32.770Z,34.03
2019-05-21T00:17:18.850Z,34.03
2019-05-21T00:20:05.230Z,33.77
2019-05-21T00:22:51.510Z,31.57
2019-05-21T00:25:37.470Z,33.43
2019-05-21T00:28:38.420Z,31.60
2019-05-21T00:32:01.492Z,30.23
2019-05-21T00:35:26.530Z,33.13
2019-05-21T00:38:51.955Z,31.17
2019-05-21T00:42:01.904Z,30.37
2019-05-21T00:44:48.290Z,29.77
2019-05-21T00:47:34.771Z,31.00
2019-05-21T00:50:20.672Z,29.73
2019-05-21T00:53:06.870Z,31.17
2019-05-21T00:55:53.212Z,31.57
2019-05-21T00:58:39.790Z,33.07
2019-05-21T01:01:25.851Z,31.17
2019-05-21T01:04:11.951Z,30.27
2019-05-21T01:06:58.084Z,30.80
2019-05-21T01:09:44.292Z,29.70
2019-05-21T01:12:30.471Z,30.10
2019-05-21T01:15:16.612Z,33.47
2019-05-21T01:18:02.992Z,33.63
2019-05-21T01:20:49.110Z,32.13
2019-05-21T01:23:35.570Z,32.73
2019-05-21T01:26:22.411Z,32.43
2019-05-21T01:29:08.511Z,34.07
2019-05-21T01:31:54.830Z,32.63
2019-05-21T01:34:41.435Z,32.70
2019-05-21T01:37:27.774Z,33.77
2019-05-21T01:40:13.991Z,32.33
2019-05-21T01:43:03.226Z,31.27
2019-05-21T01:45:48.511Z,30.07
2019-05-21T01:48:34.832Z,31.67
2019-05-21T01:51:21.192Z,29.83
2019-05-21T01:54:07.491Z,29.63
2019-05-21T01:56:53.812Z,30.03
2019-05-21T01:59:40.091Z,30.03
2019-05-21T02:02:26.831Z,26.93
2019-05-21T02:05:14.571Z,25.77
2019-05-21T02:08:01.173Z,29.53
2019-05-21T02:10:47.191Z,27.60
2019-05-21T02:13:33.553Z,28.90
2019-05-21T02:16:19.631Z,26.67
2019-05-21T02:19:05.970Z,24.47
2019-05-21T02:21:52.071Z,25.10
2019-05-21T02:24:38.052Z,25.53
2019-05-21T02:27:24.090Z,24.43
2019-05-21T02:30:10.534Z,25.40
2019-05-21T02:32:56.791Z,25.50
2019-05-21T02:35:53.528Z,26.27
2019-05-21T02:38:31.073Z,28.67
2019-05-21T02:41:17.104Z,28.50
2019-05-21T02:44:03.406Z,29.77
2019-05-21T02:46:49.758Z,28.17
2019-05-21T02:49:35.906Z,28.73
2019-05-21T02:52:21.867Z,29.20
2019-05-21T02:55:08.496Z,29.00
2019-05-21T02:57:54.229Z,30.73
2019-05-21T03:00:58.478Z,31.00
2019-05-21T03:03:45.146Z,31.90
2019-05-21T03:06:31.211Z,30.33
2019-05-21T03:09:17.262Z,32.23
2019-05-21T03:12:03.881Z,30.73
2019-05-21T03:14:49.673Z,29.57
2019-05-21T03:17:35.804Z,30.27
2019-05-21T03:20:21.940Z,31.23
2019-05-21T03:23:07.997Z,32.53
2019-05-21T03:25:54.241Z,30.37
2019-05-21T03:28:40.211Z,29.90
2019-05-21T03:31:26.300Z,27.20
2019-05-21T03:34:12.665Z,27.80
2019-05-21T03:36:58.833Z,28.47
2019-05-21T03:39:45.068Z,28.77
2019-05-21T03:42:31.323Z,29.00
2019-05-21T03:45:17.493Z,28.57
2019-05-21T03:48:03.671Z,28.57
2019-05-21T03:50:49.623Z,30.47
2019-05-21T03:53:35.612Z,31.07
2019-05-21T03:56:21.785Z,30.53
2019-05-21T03:59:07.912Z,30.23
2019-05-21T04:01:53.902Z,28.80
2019-05-21T04:04:40.263Z,31.30
2019-05-21T04:07:26.319Z,28.27
2019-05-21T04:10:14.225Z,27.97
2019-05-21T04:13:07.082Z,28.33
2019-05-21T04:16:12.274Z,29.23
2019-05-21T04:19:02.701Z,28.53
2019-05-21T04:21:48.768Z,27.67
2019-05-21T04:24:34.869Z,27.20
2019-05-21T04:27:21.024Z,30.73
2019-05-21T04:30:11.248Z,28.87
2019-05-21T04:32:56.301Z,30.63
2019-05-21T04:35:42.477Z,32.40
2019-05-21T04:38:28.577Z,33.97
2019-05-21T04:41:14.734Z,34.43
2019-05-21T04:44:00.891Z,35.23
2019-05-21T04:46:46.922Z,35.97
2019-05-21T04:49:33.159Z,36.50
2019-05-21T04:52:19.386Z,37.03
2019-05-21T04:55:05.775Z,38.70
2019-05-21T04:57:51.642Z,38.67
2019-05-21T05:00:37.923Z,37.83
2019-05-21T05:03:23.937Z,38.03
2019-05-21T05:06:10.257Z,41.23
2019-05-21T05:08:56.286Z,39.60
2019-05-21T05:11:42.434Z,38.60
2019-05-21T05:14:28.552Z,39.27
2019-05-21T05:17:14.702Z,38.87
2019-05-21T05:20:00.737Z,40.27
2019-05-21T05:22:46.926Z,38.80
2019-05-21T05:25:32.957Z,43.30
2019-05-21T05:28:19.134Z,38.63
2019-05-21T05:31:05.229Z,41.07
2019-05-21T05:33:51.244Z,39.63
2019-05-21T05:36:37.575Z,39.73
2019-05-21T05:39:23.651Z,40.73
2019-05-21T05:42:09.878Z,39.90
2019-05-21T05:44:56.188Z,41.70
2019-05-21T05:47:42.446Z,42.80
2019-05-21T05:50:32.673Z,41.27
2019-05-21T05:53:18.857Z,44.33
2019-05-21T05:56:04.907Z,41.63
2019-05-21T05:58:50.917Z,42.23
2019-05-21T06:01:37.171Z,40.50
2019-05-21T06:04:23.269Z,42.70
2019-05-21T06:07:09.412Z,42.33
2019-05-21T06:09:55.842Z,39.93
2019-05-21T06:12:41.904Z,42.43
2019-05-21T06:15:28.022Z,40.70
2019-05-21T06:18:14.302Z,40.83
2019-05-21T06:21:00.477Z,40.80
2019-05-21T06:23:46.547Z,43.47
2019-05-21T06:26:32.647Z,39.33
2019-05-21T06:29:18.790Z,39.70
2019-05-21T06:32:05.047Z,37.77
2019-05-21T06:34:51.129Z,37.37
2019-05-21T06:37:37.257Z,37.63
2019-05-21T06:40:23.685Z,37.97
2019-05-21T06:43:09.749Z,35.77
2019-05-21T06:45:55.838Z,35.90
2019-05-21T06:48:42.073Z,35.43
2019-05-21T06:51:28.180Z,37.33
2019-05-21T06:54:14.364Z,38.30
2019-05-21T06:57:00.480Z,37.70
2019-05-21T06:59:46.542Z,38.73
2019-05-21T07:02:32.869Z,34.37
2019-05-21T07:05:18.927Z,38.57
2019-05-21T07:08:05.187Z,36.97
2019-05-21T07:10:51.487Z,36.40
2019-05-21T07:13:37.608Z,37.17
2019-05-21T07:16:23.697Z,35.30
2019-05-21T07:19:10.037Z,33.63
2019-05-21T07:22:11.556Z,34.77
2019-05-21T07:24:44.307Z,33.03
2019-05-21T07:27:30.648Z,33.23
2019-05-21T07:30:16.874Z,33.97
2019-05-21T07:33:03.168Z,33.27
2019-05-21T07:35:49.795Z,30.87
2019-05-21T07:38:52.086Z,32.40
2019-05-21T07:41:24.184Z,33.07
2019-05-21T07:44:10.601Z,33.87
2019-05-21T07:46:56.741Z,32.67
2019-05-21T07:49:42.920Z,32.83
2019-05-21T07:52:29.353Z,32.77
2019-05-21T07:55:15.352Z,33.43
2019-05-21T07:58:01.670Z,31.23
2019-05-21T08:00:48.023Z,31.13
2019-05-21T08:03:34.423Z,30.97
2019-05-21T08:06:20.681Z,31.00
2019-05-21T08:09:13.187Z,28.57
2019-05-21T08:11:54.804Z,28.00
2019-05-21T08:14:41.082Z,29.37
2019-05-21T08:17:27.198Z,27.33
2019-05-21T08:20:15.328Z,26.10
2019-05-21T08:23:01.548Z,26.27
2019-05-21T08:25:47.693Z,24.87
2019-05-21T08:28:33.677Z,23.23
2019-05-21T08:31:19.937Z,21.50
2019-05-21T08:34:05.997Z,22.63
2019-05-21T08:36:52.063Z,21.43
2019-05-21T08:39:38.477Z,21.00
2019-05-21T08:42:24.709Z,20.43
2019-05-21T08:45:11.185Z,21.20
2019-05-21T08:47:57.592Z,21.60
2019-05-21T08:50:43.860Z,22.27
2019-05-21T08:53:30.133Z,21.37
2019-05-21T08:56:16.298Z,19.90
2019-05-21T08:59:02.569Z,18.83
2019-05-21T09:01:48.637Z,19.50
2019-05-21T09:07:15.049Z,17.77
2019-05-21T09:07:22.861Z,16.63
2019-05-21T09:10:09.706Z,15.47
2019-05-21T09:12:56.282Z,16.80
2019-05-21T09:15:42.422Z,17.33
2019-05-21T09:18:28.623Z,17.00
2019-05-21T09:21:14.682Z,17.30
2019-05-21T09:24:00.862Z,16.23
2019-05-21T09:26:47.217Z,17.00
2019-05-21T09:29:33.540Z,17.67
2019-05-21T09:32:19.697Z,17.47
2019-05-21T09:35:06.518Z,18.50
2019-05-21T09:37:52.606Z,18.50
2019-05-21T09:40:38.798Z,18.03
2019-05-21T09:43:24.987Z,18.30
2019-05-21T09:46:11.177Z,18.53
2019-05-21T09:48:57.381Z,18.97
2019-05-21T09:51:43.471Z,18.53
2019-05-21T09:54:29.585Z,17.47
2019-05-21T09:57:19.886Z,19.00
2019-05-21T10:00:36.715Z,17.73
2019-05-21T10:03:25.009Z,17.57
2019-05-21T10:06:11.243Z,18.93
2019-05-21T10:08:57.596Z,19.63
2019-05-21T10:11:43.801Z,17.90
2019-05-21T10:14:33.929Z,17.80
2019-05-21T10:17:18.207Z,18.20
2019-05-21T10:20:05.114Z,18.07
2019-05-21T10:22:51.397Z,18.40
2019-05-21T10:25:37.962Z,18.50
2019-05-21T10:28:23.711Z,18.37
2019-05-21T10:31:10.076Z,18.33
2019-05-21T10:33:56.732Z,18.90
2019-05-21T10:36:42.775Z,18.70
2019-05-21T10:39:29.033Z,18.03
2019-05-21T10:42:15.072Z,18.53
2019-05-21T10:45:01.278Z,18.23
2019-05-21T10:47:47.377Z,18.03
2019-05-21T10:50:33.467Z,17.43
2019-05-21T10:53:19.548Z,18.93
2019-05-21T10:56:05.848Z,18.87
2019-05-21T10:58:52.017Z,19.37
2019-05-21T11:02:03.668Z,19.53
2019-05-21T11:04:56.354Z,18.10
2019-05-21T11:07:42.334Z,19.60
2019-05-21T11:10:28.626Z,18.93
2019-05-21T11:13:14.749Z,18.23
2019-05-21T11:16:00.799Z,19.97
2019-05-21T11:18:47.167Z,17.33
2019-05-21T11:21:34.622Z,21.07
2019-05-21T11:24:20.799Z,18.57
2019-05-21T11:27:06.907Z,17.57
2019-05-21T11:29:53.001Z,18.17
2019-05-21T11:32:39.087Z,19.53
2019-05-21T11:35:25.457Z,19.23
2019-05-21T11:38:12.062Z,19.43
2019-05-21T11:40:58.344Z,19.20
2019-05-21T11:43:44.651Z,17.87
2019-05-21T11:46:30.850Z,17.97
2019-05-21T11:49:17.120Z,16.83
2019-05-21T11:52:03.458Z,18.30
2019-05-21T11:54:49.546Z,15.90
2019-05-21T11:57:35.716Z,16.37
2019-05-21T12:00:23.859Z,15.83
2019-05-21T12:03:10.939Z,16.57
2019-05-21T12:05:57.021Z,16.70
2019-05-21T12:08:55.704Z,18.03
2019-05-21T12:11:31.412Z,17.70
2019-05-21T12:14:17.622Z,18.43
2019-05-21T12:17:04.113Z,18.10
2019-05-21T12:19:49.988Z,15.87
2019-05-21T12:22:36.157Z,14.80
2019-05-21T12:25:22.306Z,15.87
2019-05-21T12:28:11.091Z,17.13
2019-05-21T12:30:56.258Z,16.03
2019-05-21T12:33:42.471Z,13.63
2019-05-21T12:36:29.462Z,12.67
2019-05-21T12:39:15.890Z,11.97
2019-05-21T12:42:02.094Z,11.70
2019-05-21T12:44:48.527Z,10.87
2019-05-21T12:47:34.528Z,10.40
2019-05-21T12:50:20.776Z,10.30
2019-05-21T12:53:07.128Z,11.27
2019-05-21T12:55:53.410Z,11.03
2019-05-21T12:58:39.521Z,11.07
2019-05-21T13:01:25.676Z,10.77
2019-05-21T13:04:12.316Z,11.07
2019-05-21T13:06:58.547Z,11.33
2019-05-21T13:09:46.903Z,11.47
2019-05-21T13:12:33.005Z,11.50
2019-05-21T13:15:19.798Z,10.97
2019-05-21T13:18:06.102Z,12.73
2019-05-21T13:20:52.550Z,12.77
2019-05-21T13:23:40.174Z,10.87
2019-05-21T13:26:26.228Z,11.80
2019-05-21T13:29:12.600Z,13.23
2019-05-21T13:31:58.803Z,12.10
2019-05-21T13:34:45.043Z,11.73
2019-05-21T13:37:31.528Z,11.63
2019-05-21T13:40:17.929Z,11.40
2019-05-21T13:43:04.124Z,11.57
2019-05-21T13:45:50.296Z,11.97
2019-05-21T13:48:36.515Z,12.23
2019-05-21T13:51:22.628Z,12.50
2019-05-21T13:54:08.816Z,13.50
2019-05-21T13:56:54.997Z,12.77
2019-05-21T13:59:41.148Z,13.80
2019-05-21T14:02:30.142Z,13.97
2019-05-21T14:05:16.487Z,16.40
2019-05-21T14:08:02.655Z,17.23
2019-05-21T14:10:48.543Z,17.07
2019-05-21T14:13:34.682Z,17.73
2019-05-21T14:16:21.022Z,19.27
2019-05-21T14:19:07.286Z,17.43
2019-05-21T14:21:53.902Z,17.43
2019-05-21T14:24:40.226Z,16.93
2019-05-21T14:27:41.700Z,19.07
2019-05-21T14:30:14.630Z,19.20
2019-05-21T14:33:00.875Z,17.17
2019-05-21T14:35:46.878Z,18.57
2019-05-21T14:38:33.275Z,17.83
2019-05-21T14:41:19.648Z,17.63
2019-05-21T14:44:07.806Z,18.13
2019-05-21T14:46:53.979Z,17.33
2019-05-21T14:49:40.315Z,18.17
2019-05-21T14:52:26.474Z,18.70
2019-05-21T14:55:12.729Z,17.93
2019-05-21T14:57:59.177Z,19.50
2019-05-21T15:00:45.032Z,17.73
2019-05-21T15:03:31.183Z,17.73
2019-05-21T15:06:17.471Z,17.90
2019-05-21T15:09:04.694Z,17.17
2019-05-21T15:11:50.867Z,19.27
2019-05-21T15:14:37.042Z,17.97
2019-05-21T15:17:23.241Z,17.07
2019-05-21T15:20:17.598Z,17.67
2019-05-21T15:23:03.868Z,17.47
2019-05-21T15:25:50.048Z,17.13
2019-05-21T15:28:36.252Z,16.47
2019-05-21T15:31:22.884Z,16.97
2019-05-21T15:34:09.012Z,15.43
2019-05-21T15:36:55.331Z,15.97
2019-05-21T15:39:41.622Z,15.60
2019-05-21T15:42:27.689Z,14.97
2019-05-21T15:45:13.884Z,14.30
2019-05-21T15:48:00.092Z,15.67
2019-05-21T15:50:46.228Z,16.10
2019-05-21T15:53:32.702Z,15.13
2019-05-21T15:56:19.317Z,16.90
2019-05-21T15:59:05.501Z,16.13
2019-05-21T16:01:51.922Z,15.70
2019-05-21T16:04:38.278Z,16.07
2019-05-21T16:07:24.422Z,16.27
2019-05-21T16:10:10.789Z,16.40
2019-05-21T16:12:57.011Z,16.93
2019-05-21T16:15:43.073Z,16.67
2019-05-21T16:18:29.367Z,17.40
2019-05-21T16:21:15.257Z,17.23
2019-05-21T16:24:01.656Z,16.83
2019-05-21T16:26:47.701Z,17.33
2019-05-21T16:29:33.712Z,17.67
2019-05-21T16:32:19.877Z,17.63
2019-05-21T16:35:06.768Z,18.20
2019-05-21T16:37:52.981Z,17.00
2019-05-21T16:40:39.219Z,18.43
2019-05-21T16:43:25.602Z,17.70
2019-05-21T16:46:11.967Z,17.97
2019-05-21T16:48:58.072Z,18.73
2019-05-21T16:51:44.416Z,17.07
2019-05-21T16:54:30.760Z,18.63
2019-05-21T16:57:16.918Z,17.40
2019-05-21T17:00:03.578Z,18.77
2019-05-21T17:02:49.721Z,17.83
2019-05-21T17:05:35.962Z,17.33
2019-05-21T17:08:22.048Z,17.13
2019-05-21T17:11:09.678Z,17.67
2019-05-21T17:13:55.950Z,18.27
2019-05-21T17:16:43.177Z,17.63
2019-05-21T17:19:29.302Z,18.50
2019-05-21T17:22:15.602Z,19.67
2019-05-21T17:25:01.737Z,18.57
2019-05-21T17:27:47.751Z,18.70
2019-05-21T17:30:34.174Z,18.90
2019-05-21T17:33:20.338Z,19.60
2019-05-21T17:36:06.380Z,18.87
2019-05-21T17:38:52.564Z,19.27
2019-05-21T17:41:38.787Z,18.50
2019-05-21T17:44:25.106Z,19.10
2019-05-21T17:47:11.034Z,18.60
2019-05-21T17:49:57.627Z,18.30
2019-05-21T17:52:44.372Z,19.50
2019-05-21T17:55:31.092Z,19.77
2019-05-21T17:58:18.558Z,19.87
2019-05-21T18:01:08.542Z,20.07
2019-05-21T18:03:55.206Z,19.43
2019-05-21T18:06:42.098Z,19.57
2019-05-21T18:09:28.737Z,19.60
2019-05-21T18:12:31.105Z,19.70
2019-05-21T18:15:06.114Z,20.70
2019-05-21T18:17:52.441Z,19.90
2019-05-21T18:20:39.322Z,19.97
2019-05-21T18:23:26.461Z,21.00
2019-05-21T18:26:12.873Z,20.40
2019-05-21T18:28:59.367Z,20.33
2019-05-21T18:31:46.362Z,22.27
2019-05-21T18:34:32.882Z,21.57
2019-05-21T18:37:19.586Z,22.03
2019-05-21T18:40:06.737Z,21.53
2019-05-21T18:42:52.987Z,21.83
2019-05-21T18:45:39.092Z,20.37
2019-05-21T18:48:25.896Z,22.37
2019-05-21T18:51:12.561Z,21.23
2019-05-21T18:54:00.567Z,20.20
2019-05-21T18:56:47.133Z,21.63
2019-05-21T18:59:33.782Z,22.37
2019-05-21T19:02:20.392Z,21.20
2019-05-21T19:05:07.234Z,22.23
2019-05-21T19:07:53.897Z,21.90
2019-05-21T19:10:40.387Z,21.17
2019-05-21T19:13:27.327Z,23.23
2019-05-21T19:16:13.822Z,21.87
2019-05-21T19:19:00.516Z,21.83
2019-05-21T19:21:47.072Z,22.93
2019-05-21T19:24:33.249Z,24.10
2019-05-21T19:27:19.507Z,22.40
2019-05-21T19:30:07.263Z,21.87
2019-05-21T19:32:53.486Z,22.27
2019-05-21T19:35:39.992Z,22.20
2019-05-21T19:38:26.501Z,22.23
2019-05-21T19:41:12.618Z,20.10
2019-05-21T19:43:59.347Z,20.70
2019-05-21T19:46:45.846Z,22.43
2019-05-21T19:49:32.341Z,22.13
2019-05-21T19:52:18.607Z,21.57
2019-05-21T19:55:06.252Z,20.57
2019-05-21T19:57:52.476Z,20.37
2019-05-21T20:00:43.883Z,21.33
2019-05-21T20:03:29.997Z,20.83
2019-05-21T20:06:18.084Z,20.67
2019-05-21T20:09:06.572Z,20.57
2019-05-21T20:11:53.126Z,21.87
2019-05-21T20:14:40.037Z,22.50
2019-05-21T20:17:28.132Z,21.37
2019-05-21T20:20:15.381Z,20.73
2019-05-21T20:23:02.313Z,21.97
2019-05-21T20:25:56.550Z,20.37
2019-05-21T20:28:37.597Z,21.57
2019-05-21T20:31:24.587Z,21.17
2019-05-21T20:34:11.490Z,21.70
2019-05-21T20:36:58.726Z,22.33
2019-05-21T20:39:46.583Z,22.70
2019-05-21T20:42:33.153Z,20.93
2019-05-21T20:45:20.717Z,22.83
2019-05-21T20:48:08.501Z,22.03
2019-05-21T20:50:54.417Z,22.43
2019-05-21T20:53:40.587Z,23.37
2019-05-21T20:56:26.627Z,22.30
2019-05-21T20:59:14.056Z,22.73
2019-05-21T21:02:00.617Z,23.20
2019-05-21T21:04:46.756Z,22.57
2019-05-21T21:07:33.003Z,22.67
2019-05-21T21:10:19.517Z,21.87
2019-05-21T21:13:05.797Z,22.20
2019-05-21T21:15:51.942Z,21.93
2019-05-21T21:18:38.362Z,23.67
2019-05-21T21:21:25.619Z,22.03
2019-05-21T21:24:11.588Z,22.93
2019-05-21T21:26:57.642Z,23.20
2019-05-21T21:29:43.662Z,22.27
2019-05-21T21:32:30.098Z,21.47
2019-05-21T21:35:16.482Z,23.80
2019-05-21T21:38:04.652Z,22.90
2019-05-21T21:40:50.770Z,22.57
2019-05-21T21:43:36.876Z,22.20
2019-05-21T21:46:23.281Z,23.00
2019-05-21T21:49:10.042Z,22.83
2019-05-21T21:51:56.876Z,24.13
2019-05-21T21:54:43.677Z,23.77
2019-05-21T21:57:29.972Z,21.70
2019-05-21T22:01:22.172Z,22.53
2019-05-21T22:04:12.269Z,22.97
2019-05-21T22:06:58.705Z,23.03
2019-05-21T22:09:45.156Z,23.80
2019-05-21T22:12:33.403Z,22.87
2019-05-21T22:15:20.498Z,22.57
2019-05-21T22:18:07.426Z,22.97
2019-05-21T22:20:55.499Z,25.07
2019-05-21T22:23:41.371Z,22.80
2019-05-21T22:26:27.832Z,23.73
2019-05-21T22:29:14.632Z,23.80
2019-05-21T22:32:00.807Z,23.73
2019-05-21T22:34:47.007Z,24.90
2019-05-21T22:37:33.457Z,24.93
2019-05-21T22:40:19.813Z,23.63
2019-05-21T22:43:05.736Z,24.17
2019-05-21T22:45:51.886Z,24.33
2019-05-21T22:48:38.192Z,24.93
2019-05-21T22:51:24.411Z,25.27
2019-05-21T22:54:10.668Z,25.53
2019-05-21T22:56:56.813Z,27.53
2019-05-21T22:59:43.172Z,24.43
2019-05-21T23:02:31.766Z,24.83
2019-05-21T23:05:18.057Z,22.33
2019-05-21T23:08:04.767Z,25.40
2019-05-21T23:10:50.834Z,25.20
2019-05-21T23:13:37.022Z,24.23
2019-05-21T23:16:23.232Z,24.77
2019-05-21T23:19:11.172Z,23.73
2019-05-21T23:21:58.578Z,24.77
2019-05-21T23:24:45.878Z,26.27
2019-05-21T23:27:32.412Z,25.33
2019-05-21T23:30:19.157Z,25.77
2019-05-21T23:33:05.942Z,26.67
2019-05-21T23:35:52.181Z,26.40
2019-05-21T23:38:38.577Z,27.63
2019-05-21T23:41:26.312Z,27.70
2019-05-21T23:44:13.622Z,27.20
2019-05-21T23:46:59.462Z,28.33
2019-05-21T23:49:45.834Z,27.77
2019-05-21T23:52:32.187Z,28.07
2019-05-21T23:55:18.512Z,29.43
2019-05-21T23:58:05.938Z,28.57
